Flight Track Log - Related Links

Times and Time Zones

All times are in EDT time to prevent confusion due to time zone crossing. See the N877PM flight status page for this flight to view local times or setup timezone preferences in your user account.


Time Position Orientation Groundspeed Altitude Reporting Facility
EDT Latitude Longitude Course Direction KTS MPH feet Rate Location/Type
Thu 07:57:42 PM 35.4889 -78.4872 266° West 152 175 5,400  Level Washington Center
Thu 07:58:43 PM 35.4550 -78.5039 202° Southwest 137 158 7,000 1,721 Climbing Washington Center
Thu 07:59:44 PM 35.4086 -78.5228 198° South 155 178 8,900 1,729 Climbing Washington Center
Thu 08:00:41 PM 35.3728 -78.5367 198° South 155 178 10,400 1,576 Climbing Washington Center
Thu 08:01:42 PM 35.3264 -78.5553 198° South 160 184 12,000 1,537 Climbing Washington Center
Thu 08:02:42 PM 35.2822 -78.5714 197° South 160 184 13,500 1,438 Climbing Washington Center
Thu 08:03:43 PM 35.2403 -78.5878 198° South 166 191 14,900 1,377 Climbing Washington Center
Thu 08:04:44 PM 35.1981 -78.6039 197° South 166 191 16,300 1,271 Climbing Washington Center
Thu 08:05:41 PM 35.1536 -78.6225 199° South 166 191 17,400 1,169 Climbing Washington Center
Thu 08:06:42 PM 35.1094 -78.6389 197° South 166 191 18,600 1,140 Climbing Washington Center
Thu 08:07:42 PM 35.0631 -78.6572 198° South 166 191 19,700 1,050 Climbing Washington Center
Thu 08:08:42 PM 35.0167 -78.6758 198° South 166 191 20,700 1,041 Climbing Washington Center
Thu 08:09:43 PM 34.9725 -78.6919 197° South 173 199 21,800 992 Climbing Washington Center
Thu 08:10:43 PM 34.9261 -78.7103 198° South 173 199 22,700 893 Climbing Washington Center
Thu 08:11:44 PM 34.8797 -78.7289 198° South 173 199 23,600 857 Climbing Washington Center
Thu 08:12:42 PM 34.8333 -78.7447 196° South 173 199 24,400 864 Climbing Washington Center
Thu 08:13:42 PM 34.7869 -78.7633 198° South 173 199 25,300 893 Climbing Washington Center
Thu 08:14:43 PM 34.7406 -78.7817 198° South 173 199 26,200 796 Climbing Washington Center
Thu 08:16:58 PM 34.6364 -78.8200 197° South 167 192 27,900 711 Climbing Jacksonville Center
Thu 08:17:57 PM 34.5911 -78.8372 197° South 167 192 28,500 605 Climbing Jacksonville Center
Thu 08:18:57 PM 34.5439 -78.8572 199° South 167 192 29,100 550 Climbing Jacksonville Center
Thu 08:19:57 PM 34.5025 -78.8717 196° South 177 204 29,600 650 Climbing Jacksonville Center
Thu 08:20:57 PM 34.4511 -78.8967 202° Southwest 183 211 30,400 750 Climbing Jacksonville Center
Thu 08:21:57 PM 34.4039 -78.9164 199° South 183 211 31,100 650 Climbing Jacksonville Center
Thu 08:22:57 PM 34.3564 -78.9336 197° South 183 211 31,700 550 Climbing Jacksonville Center
Thu 08:23:57 PM 34.3111 -78.9583 204° Southwest 183 211 32,200 500 Climbing Jacksonville Center
Thu 08:24:57 PM 34.2686 -78.9931 214° Southwest 183 211 32,700 550 Climbing Jacksonville Center
Thu 08:25:57 PM 34.2278 -79.0275 215° Southwest 183 211 33,300 550 Climbing Jacksonville Center
Thu 08:26:57 PM 34.1872 -79.0644 217° Southwest 183 211 33,800 450 Climbing Jacksonville Center
Thu 08:27:57 PM 34.1467 -79.0989 215° Southwest 183 211 34,200 450 Climbing Jacksonville Center
Thu 08:28:57 PM 34.1081 -79.1356 218° Southwest 183 211 34,700 450 Climbing Jacksonville Center
Thu 08:29:57 PM 34.0675 -79.1725 217° Southwest 188 216 35,100 400 Climbing Jacksonville Center
Thu 08:30:57 PM 34.0225 -79.2094 214° Southwest 188 216 35,500 400 Climbing Jacksonville Center
Thu 08:31:57 PM 33.9839 -79.2436 216° Southwest 188 216 35,900 250 Climbing Jacksonville Center
Thu 08:32:57 PM 33.9414 -79.2831 218° Southwest 188 216 36,000 50 Climbing Jacksonville Center
Thu 08:33:57 PM 33.8925 -79.3250 215° Southwest 198 228 36,000  Level Jacksonville Center
Thu 08:34:57 PM 33.8372 -79.3697 214° Southwest 223 257 36,000  Level Jacksonville Center
Thu 08:35:57 PM 33.7822 -79.4194 217° Southwest 239 275 36,000  Level Jacksonville Center
Thu 08:36:57 PM 33.7356 -79.4636 218° Southwest 238 274 36,000  Level Jacksonville Center
Thu 08:37:58 PM 33.6744 -79.5158 215° Southwest 253 291 36,000  Level Jacksonville Center
Thu 08:38:57 PM 33.6153 -79.5656 215° Southwest 263 303 36,000  Level Jacksonville Center
Thu 08:39:57 PM 33.5539 -79.6203 217° Southwest 263 303 36,000  Level Jacksonville Center
Thu 08:40:58 PM 33.4928 -79.6722 215° Southwest 268 308 36,000  Level Jacksonville Center
Thu 08:41:57 PM 33.4317 -79.7292 218° Southwest 274 315 36,000  Level Jacksonville Center
Thu 08:42:57 PM 33.3703 -79.7811 215° Southwest 274 315 36,000  Level Jacksonville Center
Thu 08:43:57 PM 33.3069 -79.8356 216° Southwest 274 315 36,000  Level Jacksonville Center
Thu 08:44:58 PM 33.2436 -79.8900 216° Southwest 279 321 36,000  Level Jacksonville Center
Thu 08:45:57 PM 33.1800 -79.9442 215° Southwest 284 327 36,000  Level Jacksonville Center
Thu 08:46:57 PM 33.1208 -79.9958 216° Southwest 284 327 36,000  Level Jacksonville Center
Thu 08:47:57 PM 33.0531 -80.0475 213° Southwest 284 327 36,000  Level Jacksonville Center
Thu 08:48:57 PM 32.9958 -80.1064 221° Southwest 289 333 36,000  Level Jacksonville Center
Thu 08:49:57 PM 32.9158 -80.1681 213° Southwest 294 338 36,000  Level Jacksonville Center
Thu 08:50:57 PM 32.8525 -80.2269 218° Southwest 299 344 36,000  Level Jacksonville Center
Thu 08:51:57 PM 32.7889 -80.2831 217° Southwest 294 338 36,000  Level Jacksonville Center
Thu 08:52:58 PM 32.7231 -80.3369 215° Southwest 294 338 36,000  Level Jacksonville Center
Thu 08:53:57 PM 32.6594 -80.3931 217° Southwest 294 338 36,000  Level Jacksonville Center
Thu 08:54:58 PM 32.5961 -80.4489 217° Southwest 280 322 36,000  Level Jacksonville Center
Thu 08:55:58 PM 32.5303 -80.5050 216° Southwest 284 327 36,000  Level Jacksonville Center
Thu 08:56:57 PM 32.4644 -80.5583 214° Southwest 289 333 36,000  Level Jacksonville Center
Thu 08:57:57 PM 32.3986 -80.6142 216° Southwest 295 339 36,000  Level Jacksonville Center
Thu 08:58:58 PM 32.3350 -80.6700 217° Southwest 287 330 36,000  Level Jacksonville Center
Thu 08:59:57 PM 32.2692 -80.7256 216° Southwest 285 328 36,000  Level Jacksonville Center
Thu 09:00:57 PM 32.2094 -80.7761 216° Southwest 285 328 36,000  Level Jacksonville Center
Thu 09:01:57 PM 32.1456 -80.8292 215° Southwest 290 334 36,000  Level Jacksonville Center
Thu 09:02:57 PM 32.0878 -80.8769 215° Southwest 282 325 36,000  Level Jacksonville Center
Thu 09:03:57 PM 32.0158 -80.9347 214° Southwest 283 326 36,000  Level Jacksonville Center
Thu 09:04:57 PM 31.9519 -80.9900 216° Southwest 283 326 36,000  Level Jacksonville Center
Thu 09:05:57 PM 31.8942 -81.0353 214° Southwest 283 326 36,000  Level Jacksonville Center
Thu 09:06:57 PM 31.8261 -81.0953 217° Southwest 283 326 36,000  Level Jacksonville Center
Thu 09:07:57 PM 31.7600 -81.1481 214° Southwest 282 325 36,000  Level Jacksonville Center
Thu 09:08:57 PM 31.7042 -81.1956 216° Southwest 287 330 36,000  Level Jacksonville Center
Thu 09:09:58 PM 31.6339 -81.2528 215° Southwest 282 325 36,000  Level Jacksonville Center
Thu 09:10:57 PM 31.5719 -81.3050 216° Southwest 282 325 36,000  Level Jacksonville Center
Thu 09:11:57 PM 31.5161 -81.3500 214° Southwest 282 325 36,000  Level Jacksonville Center
Thu 09:12:57 PM 31.4458 -81.4072 215° Southwest 282 325 36,000  Level Jacksonville Center
Thu 09:13:57 PM 31.3900 -81.4567 217° Southwest 282 325 36,000  Level Jacksonville Center
Thu 09:14:57 PM 31.3239 -81.5161 218° Southwest 282 325 36,000  Level Jacksonville Center
Thu 09:15:57 PM 31.2597 -81.5656 213° Southwest 283 326 36,000  Level Jacksonville Center
Thu 09:16:57 PM 31.1975 -81.6175 216° Southwest 283 326 36,000  Level Jacksonville Center
Thu 09:17:57 PM 31.1356 -81.6669 214° Southwest 283 326 36,000  Level Jacksonville Center
Thu 09:18:57 PM 31.0775 -81.7186 217° Southwest 275 316 36,000  Level Jacksonville Center
Thu 09:19:57 PM 31.0153 -81.7653 213° Southwest 270 311 36,000  Level Jacksonville Center
Thu 09:20:57 PM 30.9553 -81.8169 216° Southwest 270 311 36,000  Level Jacksonville Center
Thu 09:21:57 PM 30.8931 -81.8661 214° Southwest 270 311 36,000  Level Jacksonville Center
Thu 09:22:57 PM 30.8328 -81.9128 214° Southwest 270 311 36,000 -50 Level Jacksonville Center
Thu 09:23:57 PM 30.7747 -81.9617 216° Southwest 270 311 35,900  Descending Jacksonville Center
Thu 09:24:57 PM 30.7144 -82.0106 215° Southwest 270 311 36,000 50 Climbing Jacksonville Center
Thu 09:25:57 PM 30.6542 -82.0594 215° Southwest 270 311 36,000 -50 Level Jacksonville Center
Thu 09:26:57 PM 30.5939 -82.1011 211° Southwest 270 311 35,900  Descending Jacksonville Center
Thu 09:27:57 PM 30.5272 -82.0992 179° South 254 292 36,000 50 Climbing Jacksonville Center
Thu 09:28:57 PM 30.4519 -82.1069 185° South 260 299 36,000  Level Jacksonville Center
Thu 09:29:57 PM 30.3769 -82.1125 184° South 273 314 36,000  Level Jacksonville Center
Thu 09:30:57 PM 30.3017 -82.1203 185° South 273 314 36,000  Level Jacksonville Center
Thu 09:31:58 PM 30.2244 -82.1258 184° South 273 314 36,000 -250 Level Jacksonville Center
Thu 09:32:57 PM 30.1472 -82.1239 179° South 273 314 35,500 -504 Descending Jacksonville Center
Thu 09:33:57 PM 30.0636 -82.1053 169° South 287 330 35,000 -250 Descending Jacksonville Center
Thu 09:34:57 PM 29.9781 -82.0942 174° South 307 353 35,000  Level Jacksonville Center
Thu 09:35:57 PM 29.8964 -82.0781 170° South 307 353 35,000  Level Jacksonville Center
Thu 09:36:57 PM 29.8169 -82.0619 170° South 307 353 35,000  Level Jacksonville Center
Thu 09:37:58 PM 29.7375 -82.0411 167° South 302 348 35,000  Level Jacksonville Center
Thu 09:38:57 PM 29.6539 -82.0297 173° South 302 348 35,000  Level Jacksonville Center
Thu 09:39:57 PM 29.5744 -82.0139 170° South 291 335 35,000  Level Jacksonville Center
Thu 09:40:57 PM 29.4972 -81.9978 170° South 291 335 35,000  Level Jacksonville Center
Thu 09:41:57 PM 29.4178 -81.9842 172° South 291 335 35,000  Level Jacksonville Center
Thu 09:42:57 PM 29.3361 -81.9636 168° South 291 335 35,000  Level Jacksonville Center
Thu 09:43:57 PM 29.2567 -81.9525 173° South 291 335 35,000  Level Jacksonville Center
Thu 09:44:57 PM 29.1772 -81.9294 166° South 296 341 35,000 -862 Level Jacksonville Center
Thu 09:46:58 PM 29.0031 -81.8914 169° South 318 366 32,400 -1,425 Descending Miami Center
Thu 09:47:58 PM 28.9139 -81.8756 171° South 324 373 30,700 -1,550 Descending Miami Center
Thu 09:48:58 PM 28.8267 -81.8597 171° South 324 373 29,300 -1,600 Descending Miami Center
Thu 09:49:58 PM 28.7450 -81.8158 155° Southeast 324 373 27,500 -1,150 Descending Miami Center
Thu 09:50:58 PM 28.6597 -81.8097 176° South 324 373 27,000 -250 Descending Miami Center
Thu 09:51:58 PM 28.5742 -81.8083 179° South 311 358 27,000  Level Miami Center
Thu 09:52:58 PM 28.4911 -81.7950 172° South 306 352 27,000  Level Miami Center
Thu 09:53:58 PM 28.4083 -81.7772 169° South 311 358 27,000 -400 Level Miami Center
Thu 09:54:58 PM 28.3233 -81.7617 171° South 311 358 26,200 -1,050 Descending Miami Center
Thu 09:55:58 PM 28.2322 -81.7414 169° South 324 373 24,900 -1,100 Descending Miami Center
Thu 09:56:58 PM 28.1392 -81.7208 169° South 336 387 24,000 -1,100 Descending Miami Center
Thu 09:57:58 PM 28.0439 -81.7003 169° South 341 392 22,700 -1,200 Descending Miami Center
Thu 09:58:58 PM 27.9483 -81.6819 170° South 347 399 21,600 -1,350 Descending Miami Center
Thu 09:59:58 PM 27.8553 -81.6617 169° South 352 405 20,000 -1,600 Descending Miami Center
Thu 10:00:58 PM 27.7517 -81.6386 169° South 347 399 18,400 -1,800 Descending Miami Center
Thu 10:01:58 PM 27.6606 -81.6183 169° South 347 399 16,400 -2,000 Descending Miami Center
Thu 10:02:58 PM 27.5692 -81.6006 170° South 347 399 14,400 -1,800 Descending Miami Center
Thu 10:03:58 PM 27.4758 -81.5825 170° South 347 399 12,800 -1,600 Descending Miami Center
Thu 10:04:58 PM 27.3889 -81.5650 170° South 335 386 11,200 -1,600 Descending Miami Center

Login

Don't have an account? Register now (free) for customized features, flight alerts, and more!